createdAt,value
2023-01-29T00:01:47.784Z,21.30
2023-01-29T00:06:49.731Z,20.00
2023-01-29T00:11:51.378Z,21.30
2023-01-29T00:16:54.891Z,22.17
2023-01-29T00:21:56.658Z,18.52
2023-01-29T00:26:58.368Z,21.67
2023-01-29T00:32:01.616Z,22.50
2023-01-29T00:37:03.551Z,21.77
2023-01-29T00:42:06.006Z,20.77
2023-01-29T00:47:09.627Z,20.55
2023-01-29T00:52:11.472Z,20.37
2023-01-29T00:57:13.383Z,19.02
2023-01-29T01:02:17.340Z,20.98
2023-01-29T01:07:19.250Z,26.60
2023-01-29T01:12:21.364Z,20.62
2023-01-29T01:17:25.078Z,21.40
2023-01-29T01:22:39.762Z,21.03
2023-01-29T01:32:44.979Z,20.70
2023-01-29T01:37:46.743Z,21.87
2023-01-29T01:42:49.761Z,21.25
2023-01-29T01:47:57.365Z,20.60
2023-01-29T01:53:02.709Z,21.30
2023-01-29T01:58:09.215Z,20.42
2023-01-29T02:03:13.293Z,19.20
2023-01-29T02:08:18.131Z,19.40
2023-01-29T02:13:20.019Z,20.30
2023-01-29T02:18:23.362Z,22.10
2023-01-29T02:23:52.493Z,21.62
2023-01-29T02:29:02.192Z,20.17
2023-01-29T02:34:15.164Z,19.60
2023-01-29T02:39:23.159Z,20.20
2023-01-29T02:44:34.918Z,20.67
2023-01-29T02:49:43.601Z,19.52
2023-01-29T02:54:51.691Z,20.45
2023-01-29T03:00:21.047Z,20.05
2023-01-29T03:05:30.472Z,19.02
2023-01-29T03:10:37.840Z,20.02
2023-01-29T03:15:45.734Z,20.90
2023-01-29T03:20:52.426Z,20.15
2023-01-29T03:25:59.401Z,19.55
2023-01-29T03:31:04.966Z,21.08
2023-01-29T03:36:10.819Z,20.35
2023-01-29T03:41:20.048Z,20.65
2023-01-29T03:46:30.115Z,20.48
2023-01-29T03:51:38.258Z,21.08
2023-01-29T03:56:54.145Z,19.42
2023-01-29T04:02:00.861Z,19.45
2023-01-29T04:07:08.940Z,22.27
2023-01-29T04:12:14.984Z,19.55
2023-01-29T04:17:25.880Z,19.20
2023-01-29T04:22:33.012Z,19.37
2023-01-29T04:27:44.374Z,19.52
2023-01-29T04:33:01.070Z,21.65
2023-01-29T04:38:17.327Z,21.95
2023-01-29T04:43:36.721Z,21.00
2023-01-29T04:49:28.979Z,20.80
2023-01-29T06:27:53.941Z,21.65
2023-01-29T06:33:10.168Z,19.42
2023-01-29T06:38:13.054Z,19.08
2023-01-29T06:43:19.563Z,21.23
2023-01-29T06:48:23.999Z,21.37
2023-01-29T06:58:32.880Z,20.62
2023-01-29T07:03:36.265Z,23.30
2023-01-29T07:08:38.726Z,22.70
2023-01-29T07:13:42.747Z,20.48
2023-01-29T07:18:44.831Z,19.85
2023-01-29T07:23:46.833Z,19.65
2023-01-29T07:28:50.234Z,19.98
2023-01-29T07:33:52.385Z,21.02
2023-01-29T07:38:54.372Z,19.80
2023-01-29T07:44:00.155Z,21.92
2023-01-29T07:49:02.022Z,20.83
2023-01-29T07:54:04.088Z,24.40
2023-01-29T07:59:07.688Z,23.67
2023-01-29T08:04:10.103Z,22.03
2023-01-29T08:09:12.565Z,21.90
2023-01-29T08:14:16.003Z,22.70
2023-01-29T08:19:18.115Z,25.65
2023-01-29T08:24:20.501Z,23.35
2023-01-29T08:29:24.636Z,24.00
2023-01-29T08:34:33.283Z,27.25
2023-01-29T08:39:35.808Z,23.67
2023-01-29T08:44:45.388Z,24.65
2023-01-29T08:50:00.858Z,23.70
2023-01-29T08:55:10.940Z,23.17
2023-01-29T09:05:55.392Z,30.00
2023-01-29T09:10:58.972Z,26.37
2023-01-29T09:16:02.010Z,23.92
2023-01-29T09:21:10.295Z,24.63
2023-01-29T09:26:12.159Z,27.08
2023-01-29T09:31:14.054Z,23.45
2023-01-29T09:36:17.211Z,22.67
2023-01-29T09:41:33.733Z,26.55
2023-01-29T09:46:40.303Z,27.25
2023-01-29T09:51:49.170Z,23.10
2023-01-29T09:56:54.825Z,23.48
2023-01-29T10:02:05.804Z,22.30
2023-01-29T10:07:33.906Z,23.60
2023-01-29T10:12:58.881Z,22.62
2023-01-29T10:18:15.967Z,24.77
2023-01-29T10:23:24.005Z,24.00
2023-01-29T10:28:29.399Z,27.60
2023-01-29T10:33:49.284Z,23.85
2023-01-29T10:39:02.706Z,23.35
2023-01-29T10:44:27.194Z,23.90
2023-01-29T10:49:50.246Z,22.65
2023-01-29T10:55:03.305Z,23.38
2023-01-29T11:00:10.933Z,24.92
2023-01-29T11:05:23.206Z,25.20
2023-01-29T11:10:26.591Z,24.30
2023-01-29T11:15:32.188Z,24.63
2023-01-29T11:20:34.694Z,25.65
2023-01-29T11:25:37.883Z,25.27
2023-01-29T11:30:41.046Z,23.65
2023-01-29T11:35:42.779Z,25.52
2023-01-29T11:40:46.318Z,21.42
2023-01-29T11:45:50.266Z,22.27
2023-01-29T11:50:53.691Z,21.33
2023-01-29T11:55:59.591Z,22.73
2023-01-29T12:01:01.936Z,22.40
2023-01-29T12:06:08.364Z,20.52
2023-01-29T12:11:27.033Z,21.48
2023-01-29T12:16:33.104Z,22.70
2023-01-29T12:21:43.090Z,22.05
2023-01-29T12:26:51.659Z,21.40
2023-01-29T12:32:01.342Z,21.40
2023-01-29T12:37:09.814Z,21.65
2023-01-29T12:42:18.643Z,22.08
2023-01-29T12:47:24.839Z,22.45
2023-01-29T12:52:37.445Z,23.12
2023-01-29T12:57:46.954Z,23.23
2023-01-29T13:02:54.391Z,22.48
2023-01-29T13:08:02.990Z,22.05
2023-01-29T13:13:14.899Z,22.90
2023-01-29T13:18:37.485Z,22.40
2023-01-29T13:23:43.561Z,22.35
2023-01-29T13:28:47.982Z,20.75
2023-01-29T13:33:55.272Z,21.70
2023-01-29T13:39:02.436Z,23.05
2023-01-29T13:44:18.261Z,21.73
2023-01-29T13:49:39.503Z,23.95
2023-01-29T13:54:50.095Z,22.40
2023-01-29T13:59:55.436Z,23.75
2023-01-29T14:05:46.755Z,22.37
2023-01-29T14:11:27.239Z,22.48
2023-01-29T14:16:35.908Z,22.20
2023-01-29T14:21:38.467Z,22.60
2023-01-29T14:26:44.744Z,19.52
2023-01-29T14:31:51.889Z,20.90
2023-01-29T14:36:56.262Z,20.12
2023-01-29T14:41:59.438Z,20.77
2023-01-29T14:47:02.626Z,19.80
2023-01-29T14:52:04.426Z,19.20
2023-01-29T14:57:10.784Z,22.67
2023-01-29T15:02:18.591Z,21.02
2023-01-29T15:07:29.475Z,20.30
2023-01-29T15:12:36.230Z,20.48
2023-01-29T15:17:45.993Z,22.20
2023-01-29T15:22:47.645Z,23.15
2023-01-29T15:27:49.953Z,20.42
2023-01-29T15:32:53.060Z,20.65
2023-01-29T15:38:03.480Z,22.42
2023-01-29T15:43:20.033Z,21.75
2023-01-29T15:48:31.396Z,22.23
2023-01-29T15:53:37.952Z,22.30
2023-01-29T15:58:40.172Z,22.17
2023-01-29T16:03:44.041Z,22.98
2023-01-29T16:08:50.522Z,25.17
2023-01-29T16:13:52.755Z,28.48
2023-01-29T16:19:00.911Z,24.92
2023-01-29T16:24:07.029Z,25.08
2023-01-29T16:29:10.729Z,27.23
2023-01-29T16:34:27.613Z,33.77
2023-01-29T16:39:32.363Z,24.77
2023-01-29T16:44:36.040Z,29.10
2023-01-29T16:49:49.508Z,25.10
2023-01-29T16:54:51.592Z,28.52
2023-01-29T16:59:55.203Z,26.62
2023-01-29T17:05:01.959Z,27.80
2023-01-29T17:10:06.295Z,30.27
2023-01-29T17:15:43.826Z,31.17
2023-01-29T17:20:47.289Z,23.65
2023-01-29T17:25:49.615Z,25.60
2023-01-29T17:31:05.237Z,27.37
2023-01-29T17:36:12.284Z,33.47
2023-01-29T17:41:21.375Z,35.55
2023-01-29T17:46:23.135Z,32.88
2023-01-29T17:51:26.751Z,34.00
2023-01-29T17:56:28.842Z,34.25
2023-01-29T18:01:30.771Z,33.72
2023-01-29T18:06:34.121Z,41.45
2023-01-29T18:11:36.055Z,32.20
2023-01-29T18:16:38.407Z,38.33
2023-01-29T18:21:56.418Z,39.88
2023-01-29T18:27:30.706Z,37.25
2023-01-29T18:32:32.972Z,50.28
2023-01-29T18:37:45.448Z,45.78
2023-01-29T18:43:07.659Z,49.70
2023-01-29T18:48:15.873Z,44.72
2023-01-29T19:09:17.337Z,35.20
2023-01-29T19:14:19.286Z,39.85
2023-01-29T19:19:21.146Z,33.88
2023-01-29T19:24:33.030Z,45.00
2023-01-29T19:29:34.824Z,38.40
2023-01-29T19:34:36.625Z,38.75
2023-01-29T19:39:43.851Z,43.42
2023-01-29T19:44:45.578Z,37.47
2023-01-29T19:49:47.324Z,30.25
2023-01-29T19:54:50.514Z,36.50
2023-01-29T19:59:52.355Z,38.97
2023-01-29T20:04:54.209Z,38.38
2023-01-29T20:09:57.330Z,38.42
2023-01-29T20:14:59.048Z,36.97
2023-01-29T20:20:00.790Z,31.12
2023-01-29T20:25:06.558Z,37.30
2023-01-29T20:30:09.757Z,44.05
2023-01-29T20:35:11.647Z,33.78
2023-01-29T20:40:16.711Z,41.22
2023-01-29T20:45:19.476Z,36.55
2023-01-29T20:50:21.253Z,43.75
2023-01-29T20:55:24.495Z,40.83
2023-01-29T21:00:26.762Z,40.97
2023-01-29T21:05:28.792Z,40.97
2023-01-29T21:10:31.884Z,40.97
2023-01-29T21:15:36.947Z,38.50
2023-01-29T21:20:38.948Z,46.22
2023-01-29T21:25:42.493Z,42.38
2023-01-29T21:30:44.436Z,40.20
2023-01-29T21:35:46.956Z,44.45
2023-01-29T21:40:52.453Z,42.10
2023-01-29T21:45:59.505Z,45.88
2023-01-29T21:51:01.465Z,34.35
2023-01-29T21:56:07.976Z,40.80
2023-01-29T22:07:04.165Z,43.10
2023-01-29T22:17:09.786Z,41.55
2023-01-29T22:22:13.085Z,38.67
2023-01-29T22:27:18.926Z,38.22
2023-01-29T22:32:25.111Z,40.58
2023-01-29T22:37:33.025Z,36.95
2023-01-29T22:42:45.142Z,38.63
2023-01-29T22:47:46.954Z,39.20
2023-01-29T22:53:25.030Z,43.53
2023-01-29T22:58:28.429Z,49.05
2023-01-29T23:04:03.203Z,44.45
2023-01-29T23:09:16.520Z,39.67
2023-01-29T23:14:19.992Z,42.62
2023-01-29T23:19:21.987Z,42.13
2023-01-29T23:24:23.875Z,42.53
2023-01-29T23:29:27.448Z,41.75
2023-01-29T23:34:29.301Z,42.47
2023-01-29T23:39:31.053Z,41.03
2023-01-29T23:44:34.188Z,42.62
2023-01-29T23:49:35.957Z,42.53
2023-01-29T23:54:37.717Z,38.08
2023-01-29T23:59:41.083Z,40.60
